EmailTwitter


Observations de surface / Québec / CYHU (71371)

Régions: Québec | Canada | États-Unis | Europe | France | UK | Ailleurs
Station
Affichage
Infos & localisation pour CYHU (71371) | Aide pour décoder les METARs

Observations prises le 2018-07-15 à 19H00 UTC à MONTREAL/ST HUBE, QB (CYHU)

Etat du ciel: dégagé.

Température: 30.0 Celsius

Point de rosée: 16.0 Celsius

Humidité relative: 43%

Indice Humidex: 35.

Vents: Nord-ouest à 11 km/h ou 6 noeuds.

Rafale du vent: 28 km/h ou 15 noeuds.

Pression au niveau moyen de la mer: 101.36 kilopascals.

Calage altimétrique: 101.35 kilopascals ou 29.93 pouces de mercure.

Visibilité horizontale: 9.00 milles terrestres ou 14.40 kilomètres.

Observation METAR:

CYHU 151900Z AUTO 33006G15KT 310V020 9SM CLR 30/16 A2993 RMK SLP136 DENSITY ALT

1800FT=